sensor_id;sensor_type;location;lat;lon;timestamp;P1;durP1;ratioP1;P2;durP2;ratioP2
17449;SDS011;8842;51.244;7.102;2023-07-08T00:01:18;12.40;;;11.80;;
17449;SDS011;8842;51.244;7.102;2023-07-08T00:06:30;12.50;;;11.80;;
17449;SDS011;8842;51.244;7.102;2023-07-08T00:11:34;12.40;;;11.70;;
17449;SDS011;8842;51.244;7.102;2023-07-08T00:16:38;12.30;;;11.70;;
17449;SDS011;8842;51.244;7.102;2023-07-08T00:21:42;12.55;;;11.85;;
17449;SDS011;8842;51.244;7.102;2023-07-08T00:26:46;12.70;;;12.00;;
17449;SDS011;8842;51.244;7.102;2023-07-08T00:31:58;12.90;;;12.20;;
17449;SDS011;8842;51.244;7.102;2023-07-08T00:37:02;12.80;;;12.10;;
17449;SDS011;8842;51.244;7.102;2023-07-08T00:42:16;13.32;;;12.63;;
17449;SDS011;8842;51.244;7.102;2023-07-08T00:47:21;16.93;;;13.90;;
17449;SDS011;8842;51.244;7.102;2023-07-08T00:52:33;13.00;;;12.20;;
17449;SDS011;8842;51.244;7.102;2023-07-08T00:57:39;12.82;;;12.13;;
17449;SDS011;8842;51.244;7.102;2023-07-08T01:02:45;13.00;;;12.30;;
17449;SDS011;8842;51.244;7.102;2023-07-08T01:07:59;12.70;;;12.03;;
17449;SDS011;8842;51.244;7.102;2023-07-08T01:13:06;12.55;;;11.90;;
17449;SDS011;8842;51.244;7.102;2023-07-08T01:23:23;13.30;;;12.60;;
17449;SDS011;8842;51.244;7.102;2023-07-08T01:28:27;13.10;;;12.40;;
17449;SDS011;8842;51.244;7.102;2023-07-08T01:33:33;12.60;;;11.90;;
17449;SDS011;8842;51.244;7.102;2023-07-08T01:38:37;12.73;;;12.03;;
17449;SDS011;8842;51.244;7.102;2023-07-08T01:43:42;12.90;;;12.20;;
17449;SDS011;8842;51.244;7.102;2023-07-08T01:48:47;13.08;;;12.37;;
17449;SDS011;8842;51.244;7.102;2023-07-08T01:54:00;12.90;;;12.20;;
17449;SDS011;8842;51.244;7.102;2023-07-08T01:59:04;12.43;;;11.83;;
17449;SDS011;8842;51.244;7.102;2023-07-08T02:04:15;12.68;;;11.97;;
17449;SDS011;8842;51.244;7.102;2023-07-08T02:09:19;12.50;;;11.70;;
17449;SDS011;8842;51.244;7.102;2023-07-08T02:14:24;12.15;;;11.55;;
17449;SDS011;8842;51.244;7.102;2023-07-08T02:19:38;12.37;;;11.78;;
17449;SDS011;8842;51.244;7.102;2023-07-08T02:24:42;12.70;;;12.00;;
17449;SDS011;8842;51.244;7.102;2023-07-08T02:29:53;12.73;;;12.03;;
17449;SDS011;8842;51.244;7.102;2023-07-08T02:34:57;12.90;;;12.20;;
17449;SDS011;8842;51.244;7.102;2023-07-08T02:40:02;12.98;;;12.28;;
17449;SDS011;8842;51.244;7.102;2023-07-08T02:45:07;13.43;;;12.63;;
17449;SDS011;8842;51.244;7.102;2023-07-08T02:50:19;12.78;;;12.07;;
17449;SDS011;8842;51.244;7.102;2023-07-08T02:55:23;13.32;;;12.40;;
17449;SDS011;8842;51.244;7.102;2023-07-08T03:00:27;12.82;;;12.13;;
17449;SDS011;8842;51.244;7.102;2023-07-08T03:05:31;12.93;;;12.23;;
17449;SDS011;8842;51.244;7.102;2023-07-08T03:10:46;13.13;;;12.33;;
17449;SDS011;8842;51.244;7.102;2023-07-08T03:15:51;13.18;;;12.47;;
17449;SDS011;8842;51.244;7.102;2023-07-08T03:21:03;12.45;;;11.80;;
17449;SDS011;8842;51.244;7.102;2023-07-08T03:26:09;12.90;;;12.20;;
17449;SDS011;8842;51.244;7.102;2023-07-08T03:31:24;13.00;;;12.30;;
17449;SDS011;8842;51.244;7.102;2023-07-08T03:36:28;13.40;;;12.50;;
17449;SDS011;8842;51.244;7.102;2023-07-08T03:41:39;13.35;;;12.65;;
17449;SDS011;8842;51.244;7.102;2023-07-08T03:46:44;13.55;;;12.85;;
17449;SDS011;8842;51.244;7.102;2023-07-08T03:51:49;13.32;;;12.63;;
17449;SDS011;8842;51.244;7.102;2023-07-08T03:56:54;13.90;;;13.10;;
17449;SDS011;8842;51.244;7.102;2023-07-08T04:02:07;13.50;;;12.80;;
17449;SDS011;8842;51.244;7.102;2023-07-08T04:07:13;13.15;;;12.45;;
17449;SDS011;8842;51.244;7.102;2023-07-08T04:12:24;13.53;;;12.78;;
17449;SDS011;8842;51.244;7.102;2023-07-08T04:17:29;13.18;;;12.47;;
17449;SDS011;8842;51.244;7.102;2023-07-08T04:22:44;13.60;;;12.90;;
17449;SDS011;8842;51.244;7.102;2023-07-08T04:27:48;13.50;;;12.80;;
17449;SDS011;8842;51.244;7.102;2023-07-08T04:33:00;13.93;;;13.08;;
17449;SDS011;8842;51.244;7.102;2023-07-08T04:38:04;13.28;;;12.58;;
17449;SDS011;8842;51.244;7.102;2023-07-08T04:43:10;12.90;;;12.20;;
17449;SDS011;8842;51.244;7.102;2023-07-08T04:48:22;13.40;;;12.70;;
17449;SDS011;8842;51.244;7.102;2023-07-08T04:53:27;12.40;;;11.80;;
17449;SDS011;8842;51.244;7.102;2023-07-08T04:58:39;13.22;;;12.53;;
17449;SDS011;8842;51.244;7.102;2023-07-08T05:03:43;12.80;;;12.10;;
17449;SDS011;8842;51.244;7.102;2023-07-08T05:08:47;13.00;;;12.30;;
17449;SDS011;8842;51.244;7.102;2023-07-08T05:13:59;13.32;;;12.63;;
17449;SDS011;8842;51.244;7.102;2023-07-08T05:19:03;13.20;;;12.50;;
17449;SDS011;8842;51.244;7.102;2023-07-08T05:24:15;13.62;;;12.73;;
17449;SDS011;8842;51.244;7.102;2023-07-08T05:29:19;13.03;;;12.33;;
17449;SDS011;8842;51.244;7.102;2023-07-08T05:34:23;12.30;;;11.70;;
17449;SDS011;8842;51.244;7.102;2023-07-08T05:39:27;12.18;;;11.55;;
17449;SDS011;8842;51.244;7.102;2023-07-08T05:44:33;12.90;;;12.10;;
17449;SDS011;8842;51.244;7.102;2023-07-08T05:49:50;12.13;;;11.53;;
17449;SDS011;8842;51.244;7.102;2023-07-08T05:54:54;12.90;;;12.20;;
17449;SDS011;8842;51.244;7.102;2023-07-08T06:00:07;11.93;;;11.33;;
17449;SDS011;8842;51.244;7.102;2023-07-08T06:05:13;12.35;;;11.75;;
17449;SDS011;8842;51.244;7.102;2023-07-08T06:10:17;12.00;;;11.40;;
17449;SDS011;8842;51.244;7.102;2023-07-08T06:15:29;11.57;;;10.95;;
17449;SDS011;8842;51.244;7.102;2023-07-08T06:20:33;12.30;;;11.70;;
17449;SDS011;8842;51.244;7.102;2023-07-08T06:25:37;11.55;;;10.95;;
17449;SDS011;8842;51.244;7.102;2023-07-08T06:30:41;12.25;;;11.50;;
17449;SDS011;8842;51.244;7.102;2023-07-08T06:35:53;11.80;;;11.10;;
17449;SDS011;8842;51.244;7.102;2023-07-08T06:40:57;12.40;;;11.70;;
17449;SDS011;8842;51.244;7.102;2023-07-08T06:46:01;12.37;;;11.78;;
17449;SDS011;8842;51.244;7.102;2023-07-08T06:51:13;12.40;;;11.70;;
17449;SDS011;8842;51.244;7.102;2023-07-08T06:56:17;12.00;;;11.40;;
17449;SDS011;8842;51.244;7.102;2023-07-08T07:01:21;11.75;;;11.10;;
17449;SDS011;8842;51.244;7.102;2023-07-08T07:06:25;12.25;;;11.55;;
17449;SDS011;8842;51.244;7.102;2023-07-08T07:11:29;12.18;;;11.57;;
17449;SDS011;8842;51.244;7.102;2023-07-08T07:16:33;12.03;;;11.38;;
17449;SDS011;8842;51.244;7.102;2023-07-08T07:21:37;11.68;;;11.08;;
17449;SDS011;8842;51.244;7.102;2023-07-08T07:26:42;12.28;;;11.60;;
17449;SDS011;8842;51.244;7.102;2023-07-08T07:31:54;14.93;;;11.35;;
17449;SDS011;8842;51.244;7.102;2023-07-08T07:36:58;13.43;;;12.30;;
17449;SDS011;8842;51.244;7.102;2023-07-08T07:42:03;9.10;;;8.63;;
17449;SDS011;8842;51.244;7.102;2023-07-08T07:47:08;10.45;;;9.90;;
17449;SDS011;8842;51.244;7.102;2023-07-08T07:52:12;10.98;;;10.38;;
17449;SDS011;8842;51.244;7.102;2023-07-08T07:57:17;11.50;;;10.90;;
17449;SDS011;8842;51.244;7.102;2023-07-08T08:02:21;11.80;;;11.20;;
17449;SDS011;8842;51.244;7.102;2023-07-08T08:07:25;11.70;;;11.10;;
17449;SDS011;8842;51.244;7.102;2023-07-08T08:12:29;11.97;;;11.20;;
17449;SDS011;8842;51.244;7.102;2023-07-08T08:22:44;9.38;;;8.88;;
17449;SDS011;8842;51.244;7.102;2023-07-08T08:32:59;10.75;;;10.15;;
17449;SDS011;8842;51.244;7.102;2023-07-08T08:38:05;12.00;;;11.20;;
17449;SDS011;8842;51.244;7.102;2023-07-08T08:43:18;12.50;;;11.80;;
17449;SDS011;8842;51.244;7.102;2023-07-08T08:48:25;12.78;;;11.97;;
17449;SDS011;8842;51.244;7.102;2023-07-08T08:58:43;12.07;;;11.28;;
17449;SDS011;8842;51.244;7.102;2023-07-08T09:03:51;11.18;;;10.58;;
17449;SDS011;8842;51.244;7.102;2023-07-08T09:09:00;10.90;;;10.30;;
17449;SDS011;8842;51.244;7.102;2023-07-08T09:14:14;12.75;;;11.75;;
17449;SDS011;8842;51.244;7.102;2023-07-08T09:19:21;12.43;;;11.73;;
17449;SDS011;8842;51.244;7.102;2023-07-08T09:24:36;11.55;;;10.95;;
17449;SDS011;8842;51.244;7.102;2023-07-08T09:29:43;12.90;;;12.18;;
17449;SDS011;8842;51.244;7.102;2023-07-08T09:34:55;10.95;;;10.35;;
17449;SDS011;8842;51.244;7.102;2023-07-08T09:40:03;10.60;;;10.10;;
17449;SDS011;8842;51.244;7.102;2023-07-08T09:45:16;11.80;;;11.08;;
17449;SDS011;8842;51.244;7.102;2023-07-08T09:50:22;11.63;;;10.93;;
17449;SDS011;8842;51.244;7.102;2023-07-08T09:55:28;10.80;;;10.20;;
17449;SDS011;8842;51.244;7.102;2023-07-08T10:00:40;10.82;;;10.23;;
17449;SDS011;8842;51.244;7.102;2023-07-08T10:05:46;11.28;;;10.68;;
17449;SDS011;8842;51.244;7.102;2023-07-08T10:10:59;10.68;;;10.10;;
17449;SDS011;8842;51.244;7.102;2023-07-08T10:16:09;11.53;;;10.82;;
17449;SDS011;8842;51.244;7.102;2023-07-08T10:21:25;11.70;;;11.10;;
17449;SDS011;8842;51.244;7.102;2023-07-08T10:26:32;11.88;;;11.20;;
17449;SDS011;8842;51.244;7.102;2023-07-08T10:31:38;12.90;;;12.10;;
17449;SDS011;8842;51.244;7.102;2023-07-08T10:36:47;12.47;;;11.78;;
17449;SDS011;8842;51.244;7.102;2023-07-08T10:41:54;12.03;;;11.38;;
17449;SDS011;8842;51.244;7.102;2023-07-08T10:47:04;12.70;;;11.73;;
17449;SDS011;8842;51.244;7.102;2023-07-08T10:52:15;12.07;;;11.48;;
17449;SDS011;8842;51.244;7.102;2023-07-08T10:57:30;11.40;;;10.80;;
17449;SDS011;8842;51.244;7.102;2023-07-08T11:02:52;11.22;;;10.55;;
17449;SDS011;8842;51.244;7.102;2023-07-08T11:08:24;11.48;;;10.88;;
17449;SDS011;8842;51.244;7.102;2023-07-08T11:18:42;11.90;;;11.30;;
17449;SDS011;8842;51.244;7.102;2023-07-08T11:23:50;11.68;;;11.08;;
17449;SDS011;8842;51.244;7.102;2023-07-08T11:29:04;12.18;;;11.48;;
17449;SDS011;8842;51.244;7.102;2023-07-08T11:34:12;12.03;;;11.15;;
17449;SDS011;8842;51.244;7.102;2023-07-08T11:39:27;12.18;;;11.48;;
17449;SDS011;8842;51.244;7.102;2023-07-08T11:44:34;12.03;;;11.43;;
17449;SDS011;8842;51.244;7.102;2023-07-08T11:49:38;12.05;;;11.40;;
17449;SDS011;8842;51.244;7.102;2023-07-08T11:54:43;12.60;;;11.90;;
17449;SDS011;8842;51.244;7.102;2023-07-08T12:00:13;12.68;;;11.88;;
17449;SDS011;8842;51.244;7.102;2023-07-08T12:05:29;11.75;;;11.10;;
17449;SDS011;8842;51.244;7.102;2023-07-08T12:10:38;11.05;;;10.45;;
17449;SDS011;8842;51.244;7.102;2023-07-08T12:15:44;11.08;;;10.48;;
17449;SDS011;8842;51.244;7.102;2023-07-08T12:20:49;11.12;;;10.48;;
17449;SDS011;8842;51.244;7.102;2023-07-08T12:25:57;11.40;;;10.80;;
17449;SDS011;8842;51.244;7.102;2023-07-08T12:31:01;11.55;;;10.90;;
17449;SDS011;8842;51.244;7.102;2023-07-08T12:36:15;10.00;;;9.50;;
17449;SDS011;8842;51.244;7.102;2023-07-08T12:41:21;10.48;;;9.88;;
17449;SDS011;8842;51.244;7.102;2023-07-08T12:46:26;10.95;;;10.35;;
17449;SDS011;8842;51.244;7.102;2023-07-08T12:51:41;11.60;;;11.00;;
17449;SDS011;8842;51.244;7.102;2023-07-08T12:56:45;10.65;;;10.13;;
17449;SDS011;8842;51.244;7.102;2023-07-08T13:02:00;11.95;;;11.25;;
17449;SDS011;8842;51.244;7.102;2023-07-08T13:07:05;11.63;;;11.03;;
17449;SDS011;8842;51.244;7.102;2023-07-08T13:12:12;11.00;;;10.40;;
17449;SDS011;8842;51.244;7.102;2023-07-08T13:17:18;10.68;;;10.10;;
17449;SDS011;8842;51.244;7.102;2023-07-08T13:22:23;11.20;;;10.60;;
17449;SDS011;8842;51.244;7.102;2023-07-08T13:27:28;14.18;;;11.30;;
17449;SDS011;8842;51.244;7.102;2023-07-08T13:32:32;12.60;;;11.90;;
17449;SDS011;8842;51.244;7.102;2023-07-08T13:37:36;11.25;;;10.65;;
17449;SDS011;8842;51.244;7.102;2023-07-08T13:42:46;12.60;;;11.63;;
17449;SDS011;8842;51.244;7.102;2023-07-08T13:47:58;11.33;;;10.72;;
17449;SDS011;8842;51.244;7.102;2023-07-08T13:53:16;11.90;;;11.20;;
17449;SDS011;8842;51.244;7.102;2023-07-08T13:58:21;11.83;;;11.12;;
17449;SDS011;8842;51.244;7.102;2023-07-08T14:03:35;11.70;;;11.10;;
17449;SDS011;8842;51.244;7.102;2023-07-08T14:08:39;11.93;;;11.30;;
17449;SDS011;8842;51.244;7.102;2023-07-08T14:13:43;11.65;;;11.05;;
17449;SDS011;8842;51.244;7.102;2023-07-08T14:19:10;11.95;;;11.30;;
17449;SDS011;8842;51.244;7.102;2023-07-08T14:24:21;11.90;;;11.30;;
17449;SDS011;8842;51.244;7.102;2023-07-08T14:29:28;12.60;;;11.90;;
17449;SDS011;8842;51.244;7.102;2023-07-08T14:34:32;13.00;;;12.30;;
17449;SDS011;8842;51.244;7.102;2023-07-08T14:39:37;12.50;;;11.80;;
17449;SDS011;8842;51.244;7.102;2023-07-08T14:44:49;11.20;;;10.60;;
17449;SDS011;8842;51.244;7.102;2023-07-08T14:49:55;11.33;;;10.72;;
17449;SDS011;8842;51.244;7.102;2023-07-08T14:54:59;11.28;;;10.68;;
17449;SDS011;8842;51.244;7.102;2023-07-08T15:00:15;10.88;;;10.28;;
17449;SDS011;8842;51.244;7.102;2023-07-08T15:05:21;10.98;;;10.38;;
17449;SDS011;8842;51.244;7.102;2023-07-08T15:10:27;11.22;;;10.63;;
17449;SDS011;8842;51.244;7.102;2023-07-08T15:15:33;12.18;;;11.38;;
17449;SDS011;8842;51.244;7.102;2023-07-08T15:20:38;10.82;;;10.23;;
17449;SDS011;8842;51.244;7.102;2023-07-08T15:25:44;11.45;;;10.85;;
17449;SDS011;8842;51.244;7.102;2023-07-08T15:30:56;11.88;;;11.28;;
17449;SDS011;8842;51.244;7.102;2023-07-08T15:36:01;12.30;;;11.50;;
17449;SDS011;8842;51.244;7.102;2023-07-08T15:41:05;11.83;;;11.22;;
17449;SDS011;8842;51.244;7.102;2023-07-08T15:46:15;11.10;;;10.50;;
17449;SDS011;8842;51.244;7.102;2023-07-08T15:51:20;11.60;;;11.00;;
17449;SDS011;8842;51.244;7.102;2023-07-08T15:56:24;11.93;;;11.33;;
17449;SDS011;8842;51.244;7.102;2023-07-08T16:01:29;11.73;;;11.12;;
17449;SDS011;8842;51.244;7.102;2023-07-08T16:06:33;11.38;;;10.78;;
17449;SDS011;8842;51.244;7.102;2023-07-08T16:11:37;11.48;;;10.78;;
17449;SDS011;8842;51.244;7.102;2023-07-08T16:16:41;11.43;;;10.82;;
17449;SDS011;8842;51.244;7.102;2023-07-08T16:21:53;12.25;;;11.55;;
17449;SDS011;8842;51.244;7.102;2023-07-08T16:26:57;12.35;;;11.65;;
17449;SDS011;8842;51.244;7.102;2023-07-08T16:32:01;11.90;;;11.30;;
17449;SDS011;8842;51.244;7.102;2023-07-08T16:37:08;12.43;;;11.73;;
17449;SDS011;8842;51.244;7.102;2023-07-08T16:42:13;11.70;;;11.10;;
17449;SDS011;8842;51.244;7.102;2023-07-08T16:47:18;12.70;;;12.00;;
17449;SDS011;8842;51.244;7.102;2023-07-08T16:52:23;12.20;;;11.60;;
17449;SDS011;8842;51.244;7.102;2023-07-08T16:57:28;12.50;;;11.80;;
17449;SDS011;8842;51.244;7.102;2023-07-08T17:02:32;11.00;;;10.40;;
17449;SDS011;8842;51.244;7.102;2023-07-08T17:07:44;10.05;;;9.55;;
17449;SDS011;8842;51.244;7.102;2023-07-08T17:12:48;12.47;;;11.85;;
17449;SDS011;8842;51.244;7.102;2023-07-08T17:17:53;12.88;;;12.18;;
17449;SDS011;8842;51.244;7.102;2023-07-08T17:23:08;12.37;;;11.70;;
17449;SDS011;8842;51.244;7.102;2023-07-08T17:28:14;11.97;;;11.38;;
17449;SDS011;8842;51.244;7.102;2023-07-08T17:33:26;12.70;;;11.95;;
17449;SDS011;8842;51.244;7.102;2023-07-08T17:44:09;12.20;;;11.50;;
17449;SDS011;8842;51.244;7.102;2023-07-08T17:49:13;12.85;;;12.15;;
17449;SDS011;8842;51.244;7.102;2023-07-08T17:54:25;11.68;;;11.08;;
17449;SDS011;8842;51.244;7.102;2023-07-08T17:59:31;11.53;;;10.80;;
17449;SDS011;8842;51.244;7.102;2023-07-08T18:04:36;11.18;;;10.55;;
17449;SDS011;8842;51.244;7.102;2023-07-08T18:09:44;11.25;;;10.65;;
17449;SDS011;8842;51.244;7.102;2023-07-08T18:14:54;11.45;;;10.80;;
17449;SDS011;8842;51.244;7.102;2023-07-08T18:20:07;11.03;;;10.43;;
17449;SDS011;8842;51.244;7.102;2023-07-08T18:25:14;11.97;;;11.08;;
17449;SDS011;8842;51.244;7.102;2023-07-08T18:30:20;11.83;;;11.00;;
17449;SDS011;8842;51.244;7.102;2023-07-08T18:35:32;12.93;;;11.93;;
17449;SDS011;8842;51.244;7.102;2023-07-08T18:40:37;12.90;;;12.20;;
17449;SDS011;8842;51.244;7.102;2023-07-08T18:45:49;12.80;;;12.10;;
17449;SDS011;8842;51.244;7.102;2023-07-08T18:50:55;13.60;;;12.75;;
17449;SDS011;8842;51.244;7.102;2023-07-08T18:56:00;13.60;;;12.90;;
17449;SDS011;8842;51.244;7.102;2023-07-08T19:01:04;14.10;;;13.30;;
17449;SDS011;8842;51.244;7.102;2023-07-08T19:06:19;13.72;;;12.95;;
17449;SDS011;8842;51.244;7.102;2023-07-08T19:11:25;13.68;;;12.98;;
17449;SDS011;8842;51.244;7.102;2023-07-08T19:16:37;12.68;;;11.97;;
17449;SDS011;8842;51.244;7.102;2023-07-08T19:21:42;13.65;;;12.95;;
17449;SDS011;8842;51.244;7.102;2023-07-08T19:26:46;13.60;;;12.90;;
17449;SDS011;8842;51.244;7.102;2023-07-08T19:31:50;13.93;;;13.20;;
17449;SDS011;8842;51.244;7.102;2023-07-08T19:36:54;13.32;;;12.33;;
17449;SDS011;8842;51.244;7.102;2023-07-08T19:41:59;13.40;;;12.60;;
17449;SDS011;8842;51.244;7.102;2023-07-08T19:47:11;13.35;;;12.47;;
17449;SDS011;8842;51.244;7.102;2023-07-08T19:52:15;12.40;;;11.50;;
17449;SDS011;8842;51.244;7.102;2023-07-08T19:57:19;12.45;;;11.63;;
17449;SDS011;8842;51.244;7.102;2023-07-08T20:02:31;12.75;;;12.03;;
17449;SDS011;8842;51.244;7.102;2023-07-08T20:07:35;13.93;;;12.53;;
17449;SDS011;8842;51.244;7.102;2023-07-08T20:12:39;12.98;;;12.28;;
17449;SDS011;8842;51.244;7.102;2023-07-08T20:22:57;12.98;;;12.28;;
17449;SDS011;8842;51.244;7.102;2023-07-08T20:33:13;12.60;;;11.85;;
17449;SDS011;8842;51.244;7.102;2023-07-08T20:38:17;12.70;;;12.00;;
17449;SDS011;8842;51.244;7.102;2023-07-08T20:43:29;13.20;;;12.30;;
17449;SDS011;8842;51.244;7.102;2023-07-08T20:48:33;13.32;;;12.63;;
17449;SDS011;8842;51.244;7.102;2023-07-08T20:53:38;13.78;;;12.98;;
17449;SDS011;8842;51.244;7.102;2023-07-08T20:58:42;13.80;;;12.90;;
17449;SDS011;8842;51.244;7.102;2023-07-08T21:03:53;13.68;;;12.78;;
17449;SDS011;8842;51.244;7.102;2023-07-08T21:08:57;13.90;;;13.00;;
17449;SDS011;8842;51.244;7.102;2023-07-08T21:14:09;13.50;;;12.80;;
17449;SDS011;8842;51.244;7.102;2023-07-08T21:19:13;12.68;;;11.97;;
17449;SDS011;8842;51.244;7.102;2023-07-08T21:24:28;13.00;;;12.30;;
17449;SDS011;8842;51.244;7.102;2023-07-08T21:29:32;13.38;;;12.58;;
17449;SDS011;8842;51.244;7.102;2023-07-08T21:34:36;12.95;;;12.25;;
17449;SDS011;8842;51.244;7.102;2023-07-08T21:39:40;13.55;;;12.85;;
17449;SDS011;8842;51.244;7.102;2023-07-08T21:44:46;13.20;;;12.50;;
17449;SDS011;8842;51.244;7.102;2023-07-08T21:50:00;12.60;;;11.90;;
17449;SDS011;8842;51.244;7.102;2023-07-08T21:55:07;13.25;;;12.55;;
17449;SDS011;8842;51.244;7.102;2023-07-08T22:00:21;13.43;;;12.63;;
17449;SDS011;8842;51.244;7.102;2023-07-08T22:05:26;12.05;;;11.45;;
17449;SDS011;8842;51.244;7.102;2023-07-08T22:10:30;12.10;;;11.45;;
17449;SDS011;8842;51.244;7.102;2023-07-08T22:15:41;13.85;;;12.73;;
17449;SDS011;8842;51.244;7.102;2023-07-08T22:20:45;12.60;;;11.90;;
17449;SDS011;8842;51.244;7.102;2023-07-08T22:25:50;12.50;;;11.80;;
17449;SDS011;8842;51.244;7.102;2023-07-08T22:31:02;12.58;;;11.93;;
17449;SDS011;8842;51.244;7.102;2023-07-08T22:36:08;12.70;;;12.00;;
17449;SDS011;8842;51.244;7.102;2023-07-08T22:41:12;12.70;;;12.00;;
17449;SDS011;8842;51.244;7.102;2023-07-08T22:46:26;13.03;;;12.33;;
17449;SDS011;8842;51.244;7.102;2023-07-08T22:51:31;12.95;;;12.23;;
17449;SDS011;8842;51.244;7.102;2023-07-08T22:56:44;12.70;;;11.88;;
17449;SDS011;8842;51.244;7.102;2023-07-08T23:01:48;12.40;;;11.70;;
17449;SDS011;8842;51.244;7.102;2023-07-08T23:06:52;13.13;;;12.43;;
17449;SDS011;8842;51.244;7.102;2023-07-08T23:12:05;12.60;;;11.90;;
17449;SDS011;8842;51.244;7.102;2023-07-08T23:17:11;12.63;;;11.93;;
17449;SDS011;8842;51.244;7.102;2023-07-08T23:22:23;13.32;;;12.63;;
17449;SDS011;8842;51.244;7.102;2023-07-08T23:27:27;14.03;;;13.00;;
17449;SDS011;8842;51.244;7.102;2023-07-08T23:32:39;12.95;;;12.23;;
17449;SDS011;8842;51.244;7.102;2023-07-08T23:37:43;14.38;;;13.48;;
17449;SDS011;8842;51.244;7.102;2023-07-08T23:42:55;12.80;;;12.10;;
17449;SDS011;8842;51.244;7.102;2023-07-08T23:48:00;13.10;;;12.40;;
17449;SDS011;8842;51.244;7.102;2023-07-08T23:53:05;12.55;;;11.88;;
